sensor_id;sensor_type;location;lat;lon;timestamp;P1;durP1;ratioP1;P2;durP2;ratioP2
38117;SDS011;23928;47.562;7.508;2023-01-19T00:02:21;16.07;;;9.77;;
38117;SDS011;23928;47.562;7.508;2023-01-19T00:04:47;17.60;;;9.73;;
38117;SDS011;23928;47.562;7.508;2023-01-19T00:07:13;20.00;;;9.50;;
38117;SDS011;23928;47.562;7.508;2023-01-19T00:09:39;16.60;;;9.80;;
38117;SDS011;23928;47.562;7.508;2023-01-19T00:12:04;19.83;;;9.53;;
38117;SDS011;23928;47.562;7.508;2023-01-19T00:14:30;31.17;;;13.70;;
38117;SDS011;23928;47.562;7.508;2023-01-19T00:16:56;31.87;;;14.07;;
38117;SDS011;23928;47.562;7.508;2023-01-19T00:19:22;24.60;;;11.57;;
38117;SDS011;23928;47.562;7.508;2023-01-19T00:21:47;28.73;;;12.60;;
38117;SDS011;23928;47.562;7.508;2023-01-19T00:24:13;31.70;;;13.87;;
38117;SDS011;23928;47.562;7.508;2023-01-19T00:26:39;34.90;;;15.47;;
38117;SDS011;23928;47.562;7.508;2023-01-19T00:29:07;45.27;;;19.10;;
38117;SDS011;23928;47.562;7.508;2023-01-19T00:31:34;43.83;;;19.27;;
38117;SDS011;23928;47.562;7.508;2023-01-19T00:34:00;54.17;;;23.30;;
38117;SDS011;23928;47.562;7.508;2023-01-19T00:36:26;53.60;;;22.77;;
38117;SDS011;23928;47.562;7.508;2023-01-19T00:38:52;45.10;;;19.00;;
38117;SDS011;23928;47.562;7.508;2023-01-19T00:41:17;39.33;;;17.23;;
38117;SDS011;23928;47.562;7.508;2023-01-19T00:44:04;28.07;;;13.50;;
38117;SDS011;23928;47.562;7.508;2023-01-19T00:46:29;28.57;;;13.60;;
38117;SDS011;23928;47.562;7.508;2023-01-19T00:48:55;31.10;;;13.90;;
38117;SDS011;23928;47.562;7.508;2023-01-19T00:51:20;26.50;;;13.97;;
38117;SDS011;23928;47.562;7.508;2023-01-19T00:53:46;31.17;;;13.27;;
38117;SDS011;23928;47.562;7.508;2023-01-19T00:56:11;22.10;;;12.10;;
38117;SDS011;23928;47.562;7.508;2023-01-19T00:58:37;20.37;;;10.30;;
38117;SDS011;23928;47.562;7.508;2023-01-19T01:01:03;21.27;;;10.80;;
38117;SDS011;23928;47.562;7.508;2023-01-19T01:03:30;22.73;;;12.87;;
38117;SDS011;23928;47.562;7.508;2023-01-19T01:05:56;23.40;;;11.90;;
38117;SDS011;23928;47.562;7.508;2023-01-19T01:08:22;23.90;;;12.20;;
38117;SDS011;23928;47.562;7.508;2023-01-19T01:10:47;19.97;;;10.70;;
38117;SDS011;23928;47.562;7.508;2023-01-19T01:13:14;24.27;;;11.93;;
38117;SDS011;23928;47.562;7.508;2023-01-19T01:15:40;21.60;;;11.40;;
38117;SDS011;23928;47.562;7.508;2023-01-19T01:18:07;23.57;;;12.27;;
38117;SDS011;23928;47.562;7.508;2023-01-19T01:20:33;22.43;;;11.57;;
38117;SDS011;23928;47.562;7.508;2023-01-19T01:23:01;22.93;;;12.10;;
38117;SDS011;23928;47.562;7.508;2023-01-19T01:25:27;23.57;;;11.27;;
38117;SDS011;23928;47.562;7.508;2023-01-19T01:27:54;22.27;;;12.37;;
38117;SDS011;23928;47.562;7.508;2023-01-19T01:30:21;20.90;;;11.23;;
38117;SDS011;23928;47.562;7.508;2023-01-19T01:32:47;20.43;;;11.30;;
38117;SDS011;23928;47.562;7.508;2023-01-19T01:35:13;18.70;;;10.57;;
38117;SDS011;23928;47.562;7.508;2023-01-19T01:37:40;22.97;;;11.47;;
38117;SDS011;23928;47.562;7.508;2023-01-19T01:40:07;21.63;;;10.70;;
38117;SDS011;23928;47.562;7.508;2023-01-19T01:42:35;20.23;;;12.00;;
38117;SDS011;23928;47.562;7.508;2023-01-19T01:45:21;21.97;;;10.80;;
38117;SDS011;23928;47.562;7.508;2023-01-19T01:48:04;21.13;;;10.00;;
38117;SDS011;23928;47.562;7.508;2023-01-19T01:50:35;14.50;;;8.67;;
38117;SDS011;23928;47.562;7.508;2023-01-19T01:53:25;16.00;;;8.73;;
38117;SDS011;23928;47.562;7.508;2023-01-19T01:55:52;12.27;;;8.40;;
38117;SDS011;23928;47.562;7.508;2023-01-19T01:58:18;14.47;;;8.03;;
38117;SDS011;23928;47.562;7.508;2023-01-19T02:00:44;16.40;;;8.23;;
38117;SDS011;23928;47.562;7.508;2023-01-19T02:03:28;16.20;;;8.07;;
38117;SDS011;23928;47.562;7.508;2023-01-19T02:05:56;13.60;;;8.00;;
38117;SDS011;23928;47.562;7.508;2023-01-19T02:08:27;16.60;;;8.70;;
38117;SDS011;23928;47.562;7.508;2023-01-19T02:11:17;17.97;;;8.73;;
38117;SDS011;23928;47.562;7.508;2023-01-19T02:14:04;13.43;;;8.07;;
38117;SDS011;23928;47.562;7.508;2023-01-19T02:16:30;14.70;;;8.67;;
38117;SDS011;23928;47.562;7.508;2023-01-19T02:18:56;13.70;;;8.07;;
38117;SDS011;23928;47.562;7.508;2023-01-19T02:21:29;17.23;;;8.27;;
38117;SDS011;23928;47.562;7.508;2023-01-19T02:24:08;15.93;;;7.37;;
38117;SDS011;23928;47.562;7.508;2023-01-19T02:26:38;12.67;;;7.60;;
38117;SDS011;23928;47.562;7.508;2023-01-19T02:29:09;14.47;;;7.50;;
38117;SDS011;23928;47.562;7.508;2023-01-19T02:31:37;11.83;;;7.40;;
38117;SDS011;23928;47.562;7.508;2023-01-19T02:34:04;11.97;;;7.40;;
38117;SDS011;23928;47.562;7.508;2023-01-19T02:36:54;11.67;;;7.07;;
38117;SDS011;23928;47.562;7.508;2023-01-19T02:39:39;13.73;;;7.10;;
38117;SDS011;23928;47.562;7.508;2023-01-19T02:42:12;12.70;;;6.93;;
38117;SDS011;23928;47.562;7.508;2023-01-19T02:44:42;11.00;;;6.77;;
38117;SDS011;23928;47.562;7.508;2023-01-19T02:47:11;13.40;;;7.60;;
38117;SDS011;23928;47.562;7.508;2023-01-19T02:49:37;17.17;;;8.77;;
38117;SDS011;23928;47.562;7.508;2023-01-19T02:52:03;14.80;;;8.50;;
38117;SDS011;23928;47.562;7.508;2023-01-19T02:59:51;11.90;;;6.63;;
38117;SDS011;23928;47.562;7.508;2023-01-19T03:07:56;11.97;;;7.00;;
38117;SDS011;23928;47.562;7.508;2023-01-19T03:16:40;10.77;;;6.53;;
38117;SDS011;23928;47.562;7.508;2023-01-19T03:21:47;9.50;;;6.10;;
38117;SDS011;23928;47.562;7.508;2023-01-19T03:24:16;9.33;;;5.67;;
38117;SDS011;23928;47.562;7.508;2023-01-19T03:26:45;10.93;;;6.43;;
38117;SDS011;23928;47.562;7.508;2023-01-19T03:29:13;12.20;;;5.83;;
38117;SDS011;23928;47.562;7.508;2023-01-19T03:31:43;10.17;;;5.90;;
38117;SDS011;23928;47.562;7.508;2023-01-19T03:34:12;10.23;;;5.73;;
38117;SDS011;23928;47.562;7.508;2023-01-19T03:39:27;11.40;;;6.50;;
38117;SDS011;23928;47.562;7.508;2023-01-19T03:41:54;13.43;;;6.37;;
38117;SDS011;23928;47.562;7.508;2023-01-19T03:44:27;11.60;;;6.10;;
38117;SDS011;23928;47.562;7.508;2023-01-19T03:46:55;11.17;;;6.13;;
38117;SDS011;23928;47.562;7.508;2023-01-19T03:49:22;11.07;;;5.57;;
38117;SDS011;23928;47.562;7.508;2023-01-19T03:51:48;14.03;;;5.70;;
38117;SDS011;23928;47.562;7.508;2023-01-19T03:54:14;11.23;;;6.10;;
38117;SDS011;23928;47.562;7.508;2023-01-19T03:56:39;11.57;;;5.90;;
38117;SDS011;23928;47.562;7.508;2023-01-19T03:59:06;14.83;;;6.83;;
38117;SDS011;23928;47.562;7.508;2023-01-19T04:01:32;13.00;;;6.13;;
38117;SDS011;23928;47.562;7.508;2023-01-19T04:03:57;13.93;;;6.70;;
38117;SDS011;23928;47.562;7.508;2023-01-19T04:06:23;10.23;;;5.83;;
38117;SDS011;23928;47.562;7.508;2023-01-19T04:08:49;12.77;;;6.00;;
38117;SDS011;23928;47.562;7.508;2023-01-19T04:11:15;10.07;;;5.83;;
38117;SDS011;23928;47.562;7.508;2023-01-19T04:13:41;15.93;;;6.63;;
38117;SDS011;23928;47.562;7.508;2023-01-19T04:16:08;12.83;;;6.40;;
38117;SDS011;23928;47.562;7.508;2023-01-19T04:18:35;10.57;;;5.87;;
38117;SDS011;23928;47.562;7.508;2023-01-19T04:21:05;15.37;;;7.13;;
38117;SDS011;23928;47.562;7.508;2023-01-19T04:23:31;9.47;;;6.17;;
38117;SDS011;23928;47.562;7.508;2023-01-19T04:25:58;11.20;;;6.20;;
38117;SDS011;23928;47.562;7.508;2023-01-19T04:28:25;10.23;;;5.90;;
38117;SDS011;23928;47.562;7.508;2023-01-19T04:30:51;8.60;;;5.37;;
38117;SDS011;23928;47.562;7.508;2023-01-19T04:33:18;7.63;;;4.97;;
38117;SDS011;23928;47.562;7.508;2023-01-19T04:35:44;9.97;;;5.53;;
38117;SDS011;23928;47.562;7.508;2023-01-19T04:38:11;8.57;;;5.40;;
38117;SDS011;23928;47.562;7.508;2023-01-19T04:40:36;8.53;;;5.30;;
38117;SDS011;23928;47.562;7.508;2023-01-19T04:43:02;10.47;;;4.83;;
38117;SDS011;23928;47.562;7.508;2023-01-19T04:45:27;10.17;;;5.57;;
38117;SDS011;23928;47.562;7.508;2023-01-19T04:47:53;8.17;;;5.03;;
38117;SDS011;23928;47.562;7.508;2023-01-19T04:50:18;10.27;;;6.10;;
38117;SDS011;23928;47.562;7.508;2023-01-19T04:52:44;8.70;;;5.70;;
38117;SDS011;23928;47.562;7.508;2023-01-19T04:55:10;10.80;;;5.20;;
38117;SDS011;23928;47.562;7.508;2023-01-19T04:57:35;9.10;;;5.63;;
38117;SDS011;23928;47.562;7.508;2023-01-19T05:00:01;9.00;;;5.50;;
38117;SDS011;23928;47.562;7.508;2023-01-19T05:02:30;10.57;;;6.40;;
38117;SDS011;23928;47.562;7.508;2023-01-19T05:04:56;12.77;;;5.90;;
38117;SDS011;23928;47.562;7.508;2023-01-19T05:07:21;14.60;;;6.47;;
38117;SDS011;23928;47.562;7.508;2023-01-19T05:09:47;10.87;;;6.27;;
38117;SDS011;23928;47.562;7.508;2023-01-19T05:12:13;14.37;;;6.53;;
38117;SDS011;23928;47.562;7.508;2023-01-19T05:14:38;10.93;;;5.90;;
38117;SDS011;23928;47.562;7.508;2023-01-19T05:17:04;10.17;;;5.97;;
38117;SDS011;23928;47.562;7.508;2023-01-19T05:19:29;9.27;;;5.70;;
38117;SDS011;23928;47.562;7.508;2023-01-19T05:21:55;12.77;;;6.00;;
38117;SDS011;23928;47.562;7.508;2023-01-19T05:24:21;8.97;;;5.10;;
38117;SDS011;23928;47.562;7.508;2023-01-19T05:26:46;8.07;;;5.70;;
38117;SDS011;23928;47.562;7.508;2023-01-19T05:29:12;9.37;;;5.67;;
38117;SDS011;23928;47.562;7.508;2023-01-19T05:31:38;10.87;;;5.70;;
38117;SDS011;23928;47.562;7.508;2023-01-19T05:34:03;9.17;;;5.10;;
38117;SDS011;23928;47.562;7.508;2023-01-19T05:36:29;10.10;;;5.43;;
38117;SDS011;23928;47.562;7.508;2023-01-19T05:38:55;10.00;;;5.37;;
38117;SDS011;23928;47.562;7.508;2023-01-19T05:41:21;11.37;;;5.23;;
38117;SDS011;23928;47.562;7.508;2023-01-19T05:43:47;9.13;;;5.43;;
38117;SDS011;23928;47.562;7.508;2023-01-19T05:46:12;10.03;;;5.27;;
38117;SDS011;23928;47.562;7.508;2023-01-19T05:48:38;11.03;;;5.37;;
38117;SDS011;23928;47.562;7.508;2023-01-19T05:51:04;7.97;;;4.97;;
38117;SDS011;23928;47.562;7.508;2023-01-19T05:53:30;7.97;;;5.00;;
38117;SDS011;23928;47.562;7.508;2023-01-19T05:56:02;8.20;;;5.57;;
38117;SDS011;23928;47.562;7.508;2023-01-19T05:58:30;8.87;;;5.80;;
38117;SDS011;23928;47.562;7.508;2023-01-19T06:01:00;10.07;;;5.57;;
38117;SDS011;23928;47.562;7.508;2023-01-19T06:03:29;10.60;;;5.10;;
38117;SDS011;23928;47.562;7.508;2023-01-19T06:05:56;5.77;;;4.27;;
38117;SDS011;23928;47.562;7.508;2023-01-19T06:08:22;10.43;;;5.47;;
38117;SDS011;23928;47.562;7.508;2023-01-19T06:10:48;9.47;;;5.60;;
38117;SDS011;23928;47.562;7.508;2023-01-19T06:13:13;8.20;;;5.30;;
38117;SDS011;23928;47.562;7.508;2023-01-19T06:15:39;10.67;;;6.33;;
38117;SDS011;23928;47.562;7.508;2023-01-19T06:18:06;12.23;;;6.33;;
38117;SDS011;23928;47.562;7.508;2023-01-19T06:20:32;9.97;;;5.93;;
38117;SDS011;23928;47.562;7.508;2023-01-19T06:22:57;10.27;;;5.37;;
38117;SDS011;23928;47.562;7.508;2023-01-19T06:25:23;11.23;;;5.17;;
38117;SDS011;23928;47.562;7.508;2023-01-19T06:27:50;10.40;;;6.30;;
38117;SDS011;23928;47.562;7.508;2023-01-19T06:30:15;13.03;;;6.20;;
38117;SDS011;23928;47.562;7.508;2023-01-19T06:32:41;7.57;;;5.37;;
38117;SDS011;23928;47.562;7.508;2023-01-19T06:35:07;14.17;;;7.10;;
38117;SDS011;23928;47.562;7.508;2023-01-19T06:37:33;12.97;;;7.00;;
38117;SDS011;23928;47.562;7.508;2023-01-19T06:39:59;18.13;;;8.87;;
38117;SDS011;23928;47.562;7.508;2023-01-19T06:42:25;12.93;;;6.80;;
38117;SDS011;23928;47.562;7.508;2023-01-19T06:44:50;15.57;;;8.17;;
38117;SDS011;23928;47.562;7.508;2023-01-19T06:47:16;16.20;;;9.07;;
38117;SDS011;23928;47.562;7.508;2023-01-19T06:49:41;15.57;;;7.70;;
38117;SDS011;23928;47.562;7.508;2023-01-19T06:52:08;12.77;;;7.30;;
38117;SDS011;23928;47.562;7.508;2023-01-19T06:54:35;12.67;;;7.23;;
38117;SDS011;23928;47.562;7.508;2023-01-19T06:57:01;12.17;;;7.03;;
38117;SDS011;23928;47.562;7.508;2023-01-19T06:59:27;9.73;;;6.37;;
38117;SDS011;23928;47.562;7.508;2023-01-19T07:01:53;16.83;;;7.67;;
38117;SDS011;23928;47.562;7.508;2023-01-19T07:04:20;12.10;;;7.17;;
38117;SDS011;23928;47.562;7.508;2023-01-19T07:06:46;11.33;;;6.37;;
38117;SDS011;23928;47.562;7.508;2023-01-19T07:09:11;8.80;;;6.07;;
38117;SDS011;23928;47.562;7.508;2023-01-19T07:11:37;10.60;;;6.63;;
38117;SDS011;23928;47.562;7.508;2023-01-19T07:14:03;8.57;;;5.63;;
38117;SDS011;23928;47.562;7.508;2023-01-19T07:16:29;10.13;;;5.70;;
38117;SDS011;23928;47.562;7.508;2023-01-19T07:18:55;10.43;;;6.80;;
38117;SDS011;23928;47.562;7.508;2023-01-19T07:21:21;12.73;;;7.33;;
38117;SDS011;23928;47.562;7.508;2023-01-19T07:23:47;12.97;;;7.77;;
38117;SDS011;23928;47.562;7.508;2023-01-19T07:26:13;11.53;;;7.10;;
38117;SDS011;23928;47.562;7.508;2023-01-19T07:28:42;14.37;;;8.03;;
38117;SDS011;23928;47.562;7.508;2023-01-19T07:31:08;11.93;;;7.93;;
38117;SDS011;23928;47.562;7.508;2023-01-19T07:33:34;10.90;;;6.93;;
38117;SDS011;23928;47.562;7.508;2023-01-19T07:35:59;10.80;;;7.00;;
38117;SDS011;23928;47.562;7.508;2023-01-19T07:38:25;11.00;;;6.53;;
38117;SDS011;23928;47.562;7.508;2023-01-19T07:40:51;10.37;;;7.10;;
38117;SDS011;23928;47.562;7.508;2023-01-19T07:43:23;13.33;;;6.90;;
38117;SDS011;23928;47.562;7.508;2023-01-19T07:45:49;10.17;;;6.67;;
38117;SDS011;23928;47.562;7.508;2023-01-19T07:48:14;9.67;;;6.27;;
38117;SDS011;23928;47.562;7.508;2023-01-19T07:50:40;9.40;;;6.10;;
38117;SDS011;23928;47.562;7.508;2023-01-19T07:53:06;8.80;;;6.23;;
38117;SDS011;23928;47.562;7.508;2023-01-19T07:55:33;10.33;;;6.83;;
38117;SDS011;23928;47.562;7.508;2023-01-19T07:57:59;13.60;;;7.73;;
38117;SDS011;23928;47.562;7.508;2023-01-19T08:00:25;11.17;;;7.43;;
38117;SDS011;23928;47.562;7.508;2023-01-19T08:02:50;11.83;;;7.17;;
38117;SDS011;23928;47.562;7.508;2023-01-19T08:05:17;11.23;;;6.50;;
38117;SDS011;23928;47.562;7.508;2023-01-19T08:07:44;12.00;;;6.83;;
38117;SDS011;23928;47.562;7.508;2023-01-19T08:10:11;10.40;;;7.20;;
38117;SDS011;23928;47.562;7.508;2023-01-19T08:12:38;13.43;;;6.67;;
38117;SDS011;23928;47.562;7.508;2023-01-19T08:15:06;9.80;;;6.73;;
38117;SDS011;23928;47.562;7.508;2023-01-19T08:17:32;10.57;;;6.80;;
38117;SDS011;23928;47.562;7.508;2023-01-19T08:19:58;13.00;;;7.20;;
38117;SDS011;23928;47.562;7.508;2023-01-19T08:22:23;16.17;;;7.87;;
38117;SDS011;23928;47.562;7.508;2023-01-19T08:24:49;10.17;;;6.20;;
38117;SDS011;23928;47.562;7.508;2023-01-19T08:27:15;17.93;;;8.23;;
38117;SDS011;23928;47.562;7.508;2023-01-19T08:29:41;12.27;;;7.10;;
38117;SDS011;23928;47.562;7.508;2023-01-19T08:32:07;11.73;;;6.80;;
38117;SDS011;23928;47.562;7.508;2023-01-19T08:34:33;15.23;;;7.53;;
38117;SDS011;23928;47.562;7.508;2023-01-19T08:36:59;14.40;;;8.00;;
38117;SDS011;23928;47.562;7.508;2023-01-19T08:39:24;11.03;;;6.93;;
38117;SDS011;23928;47.562;7.508;2023-01-19T08:41:51;12.67;;;7.33;;
38117;SDS011;23928;47.562;7.508;2023-01-19T08:44:17;11.93;;;6.70;;
38117;SDS011;23928;47.562;7.508;2023-01-19T08:46:43;12.07;;;6.63;;
38117;SDS011;23928;47.562;7.508;2023-01-19T08:49:09;13.47;;;5.93;;
38117;SDS011;23928;47.562;7.508;2023-01-19T08:51:35;9.63;;;6.30;;
38117;SDS011;23928;47.562;7.508;2023-01-19T08:54:00;8.70;;;5.93;;
38117;SDS011;23928;47.562;7.508;2023-01-19T08:56:26;10.57;;;5.90;;
38117;SDS011;23928;47.562;7.508;2023-01-19T08:58:52;9.17;;;5.37;;
38117;SDS011;23928;47.562;7.508;2023-01-19T09:01:17;6.80;;;5.50;;
38117;SDS011;23928;47.562;7.508;2023-01-19T09:03:44;7.00;;;5.13;;
38117;SDS011;23928;47.562;7.508;2023-01-19T09:06:11;8.60;;;5.77;;
38117;SDS011;23928;47.562;7.508;2023-01-19T09:08:38;10.13;;;5.50;;
38117;SDS011;23928;47.562;7.508;2023-01-19T09:11:07;8.10;;;5.13;;
38117;SDS011;23928;47.562;7.508;2023-01-19T09:13:35;8.30;;;4.90;;
38117;SDS011;23928;47.562;7.508;2023-01-19T09:16:01;6.63;;;4.90;;
38117;SDS011;23928;47.562;7.508;2023-01-19T09:18:28;6.00;;;4.00;;
38117;SDS011;23928;47.562;7.508;2023-01-19T09:20:55;5.70;;;4.00;;
38117;SDS011;23928;47.562;7.508;2023-01-19T09:23:21;7.13;;;4.10;;
38117;SDS011;23928;47.562;7.508;2023-01-19T09:25:47;7.23;;;4.13;;
38117;SDS011;23928;47.562;7.508;2023-01-19T09:28:14;7.83;;;4.83;;
38117;SDS011;23928;47.562;7.508;2023-01-19T09:30:41;5.23;;;4.00;;
38117;SDS011;23928;47.562;7.508;2023-01-19T09:33:09;7.57;;;4.27;;
38117;SDS011;23928;47.562;7.508;2023-01-19T09:35:37;7.07;;;4.50;;
38117;SDS011;23928;47.562;7.508;2023-01-19T09:38:03;8.20;;;4.20;;
38117;SDS011;23928;47.562;7.508;2023-01-19T09:40:31;5.80;;;4.27;;
38117;SDS011;23928;47.562;7.508;2023-01-19T09:45:38;10.70;;;4.83;;
38117;SDS011;23928;47.562;7.508;2023-01-19T09:48:34;6.73;;;4.60;;
38117;SDS011;23928;47.562;7.508;2023-01-19T09:50:59;6.37;;;4.33;;
38117;SDS011;23928;47.562;7.508;2023-01-19T09:56:31;6.30;;;4.47;;
38117;SDS011;23928;47.562;7.508;2023-01-19T09:58:58;5.13;;;3.80;;
38117;SDS011;23928;47.562;7.508;2023-01-19T10:02:25;7.30;;;4.27;;
38117;SDS011;23928;47.562;7.508;2023-01-19T10:04:29;5.73;;;4.43;;
38117;SDS011;23928;47.562;7.508;2023-01-19T10:07:08;4.87;;;3.53;;
38117;SDS011;23928;47.562;7.508;2023-01-19T10:12:34;9.57;;;4.50;;
38117;SDS011;23928;47.562;7.508;2023-01-19T10:20:15;5.73;;;4.00;;
38117;SDS011;23928;47.562;7.508;2023-01-19T10:22:47;5.47;;;4.13;;
38117;SDS011;23928;47.562;7.508;2023-01-19T10:25:18;5.37;;;3.70;;
38117;SDS011;23928;47.562;7.508;2023-01-19T10:27:47;6.97;;;3.93;;
38117;SDS011;23928;47.562;7.508;2023-01-19T10:30:17;9.03;;;4.10;;
38117;SDS011;23928;47.562;7.508;2023-01-19T10:32:48;6.50;;;4.10;;
38117;SDS011;23928;47.562;7.508;2023-01-19T10:35:15;6.53;;;4.50;;
38117;SDS011;23928;47.562;7.508;2023-01-19T10:37:48;5.17;;;3.93;;
38117;SDS011;23928;47.562;7.508;2023-01-19T10:42:43;6.23;;;3.83;;
38117;SDS011;23928;47.562;7.508;2023-01-19T10:45:16;5.83;;;3.80;;
38117;SDS011;23928;47.562;7.508;2023-01-19T10:47:44;6.07;;;4.00;;
38117;SDS011;23928;47.562;7.508;2023-01-19T10:50:21;4.67;;;3.50;;
38117;SDS011;23928;47.562;7.508;2023-01-19T10:52:50;5.10;;;3.57;;
38117;SDS011;23928;47.562;7.508;2023-01-19T10:55:22;5.67;;;4.07;;
38117;SDS011;23928;47.562;7.508;2023-01-19T10:57:59;6.33;;;3.87;;
38117;SDS011;23928;47.562;7.508;2023-01-19T11:00:38;4.97;;;4.10;;
38117;SDS011;23928;47.562;7.508;2023-01-19T11:08:37;6.50;;;4.20;;
38117;SDS011;23928;47.562;7.508;2023-01-19T11:11:03;8.97;;;4.43;;
38117;SDS011;23928;47.562;7.508;2023-01-19T11:13:32;7.30;;;4.30;;
38117;SDS011;23928;47.562;7.508;2023-01-19T11:18:35;5.53;;;4.30;;
38117;SDS011;23928;47.562;7.508;2023-01-19T11:21:07;6.93;;;4.60;;
38117;SDS011;23928;47.562;7.508;2023-01-19T11:23:47;6.43;;;4.70;;
38117;SDS011;23928;47.562;7.508;2023-01-19T11:26:25;5.53;;;3.80;;
38117;SDS011;23928;47.562;7.508;2023-01-19T11:28:53;6.37;;;3.43;;
38117;SDS011;23928;47.562;7.508;2023-01-19T11:33:57;4.93;;;2.97;;
38117;SDS011;23928;47.562;7.508;2023-01-19T11:36:28;4.43;;;2.90;;
38117;SDS011;23928;47.562;7.508;2023-01-19T11:39:00;4.27;;;3.27;;
38117;SDS011;23928;47.562;7.508;2023-01-19T11:41:48;6.20;;;3.43;;
38117;SDS011;23928;47.562;7.508;2023-01-19T11:44:21;3.83;;;2.87;;
38117;SDS011;23928;47.562;7.508;2023-01-19T11:46:51;4.07;;;3.23;;
38117;SDS011;23928;47.562;7.508;2023-01-19T11:49:21;6.60;;;3.57;;
38117;SDS011;23928;47.562;7.508;2023-01-19T11:52:09;6.10;;;3.80;;
38117;SDS011;23928;47.562;7.508;2023-01-19T11:54:43;3.47;;;2.87;;
38117;SDS011;23928;47.562;7.508;2023-01-19T11:57:13;6.03;;;3.53;;
38117;SDS011;23928;47.562;7.508;2023-01-19T11:59:41;6.80;;;3.13;;
38117;SDS011;23928;47.562;7.508;2023-01-19T12:02:14;5.80;;;2.70;;
38117;SDS011;23928;47.562;7.508;2023-01-19T12:04:48;4.83;;;2.87;;
38117;SDS011;23928;47.562;7.508;2023-01-19T12:07:15;4.30;;;2.70;;
38117;SDS011;23928;47.562;7.508;2023-01-19T12:09:48;3.03;;;2.63;;
38117;SDS011;23928;47.562;7.508;2023-01-19T12:14:56;3.87;;;2.90;;
38117;SDS011;23928;47.562;7.508;2023-01-19T12:17:30;3.87;;;2.97;;
38117;SDS011;23928;47.562;7.508;2023-01-19T12:20:03;5.13;;;3.20;;
38117;SDS011;23928;47.562;7.508;2023-01-19T12:22:34;4.17;;;2.93;;
38117;SDS011;23928;47.562;7.508;2023-01-19T12:25:13;4.93;;;2.60;;
38117;SDS011;23928;47.562;7.508;2023-01-19T12:27:41;4.20;;;2.33;;
38117;SDS011;23928;47.562;7.508;2023-01-19T12:30:19;3.30;;;2.10;;
38117;SDS011;23928;47.562;7.508;2023-01-19T12:32:49;1.80;;;1.70;;
38117;SDS011;23928;47.562;7.508;2023-01-19T12:38:22;5.73;;;2.37;;
38117;SDS011;23928;47.562;7.508;2023-01-19T12:43:43;3.10;;;2.00;;
38117;SDS011;23928;47.562;7.508;2023-01-19T12:48:52;3.53;;;2.37;;
38117;SDS011;23928;47.562;7.508;2023-01-19T12:51:22;3.50;;;2.23;;
38117;SDS011;23928;47.562;7.508;2023-01-19T12:53:50;5.60;;;2.40;;
38117;SDS011;23928;47.562;7.508;2023-01-19T12:56:18;2.80;;;2.23;;
38117;SDS011;23928;47.562;7.508;2023-01-19T12:58:51;2.90;;;2.40;;
38117;SDS011;23928;47.562;7.508;2023-01-19T13:01:17;4.77;;;2.83;;
38117;SDS011;23928;47.562;7.508;2023-01-19T13:09:30;3.63;;;2.23;;
38117;SDS011;23928;47.562;7.508;2023-01-19T13:17:52;3.60;;;2.70;;
38117;SDS011;23928;47.562;7.508;2023-01-19T13:20:22;3.50;;;2.73;;
38117;SDS011;23928;47.562;7.508;2023-01-19T13:22:53;5.20;;;2.60;;
38117;SDS011;23928;47.562;7.508;2023-01-19T13:25:51;4.33;;;3.00;;
38117;SDS011;23928;47.562;7.508;2023-01-19T13:28:31;4.40;;;2.90;;
38117;SDS011;23928;47.562;7.508;2023-01-19T13:31:04;4.20;;;2.70;;
38117;SDS011;23928;47.562;7.508;2023-01-19T13:33:34;4.00;;;3.20;;
38117;SDS011;23928;47.562;7.508;2023-01-19T13:36:04;5.00;;;3.10;;
38117;SDS011;23928;47.562;7.508;2023-01-19T13:38:58;4.27;;;3.10;;
38117;SDS011;23928;47.562;7.508;2023-01-19T13:41:29;3.87;;;2.77;;
38117;SDS011;23928;47.562;7.508;2023-01-19T13:46:36;4.83;;;3.13;;
38117;SDS011;23928;47.562;7.508;2023-01-19T13:54:50;5.07;;;3.27;;
38117;SDS011;23928;47.562;7.508;2023-01-19T13:57:20;4.13;;;2.97;;
38117;SDS011;23928;47.562;7.508;2023-01-19T14:02:37;6.53;;;3.63;;
38117;SDS011;23928;47.562;7.508;2023-01-19T14:05:20;4.43;;;2.90;;
38117;SDS011;23928;47.562;7.508;2023-01-19T14:07:50;5.10;;;3.50;;
38117;SDS011;23928;47.562;7.508;2023-01-19T14:10:33;3.87;;;3.27;;
38117;SDS011;23928;47.562;7.508;2023-01-19T14:13:22;3.77;;;3.00;;
38117;SDS011;23928;47.562;7.508;2023-01-19T14:15:49;6.57;;;3.27;;
38117;SDS011;23928;47.562;7.508;2023-01-19T14:23:36;4.37;;;2.97;;
38117;SDS011;23928;47.562;7.508;2023-01-19T14:31:47;5.03;;;3.00;;
38117;SDS011;23928;47.562;7.508;2023-01-19T14:34:29;3.40;;;2.67;;
38117;SDS011;23928;47.562;7.508;2023-01-19T14:37:03;3.83;;;2.80;;
38117;SDS011;23928;47.562;7.508;2023-01-19T14:39:42;4.07;;;2.77;;
38117;SDS011;23928;47.562;7.508;2023-01-19T14:42:10;4.53;;;2.53;;
38117;SDS011;23928;47.562;7.508;2023-01-19T14:44:41;3.03;;;2.50;;
38117;SDS011;23928;47.562;7.508;2023-01-19T14:47:19;4.70;;;3.03;;
38117;SDS011;23928;47.562;7.508;2023-01-19T14:49:49;3.30;;;2.70;;
38117;SDS011;23928;47.562;7.508;2023-01-19T14:54:58;3.67;;;2.67;;
38117;SDS011;23928;47.562;7.508;2023-01-19T14:57:27;3.77;;;3.17;;
38117;SDS011;23928;47.562;7.508;2023-01-19T14:59:53;5.60;;;3.93;;
38117;SDS011;23928;47.562;7.508;2023-01-19T15:02:19;8.37;;;5.50;;
38117;SDS011;23928;47.562;7.508;2023-01-19T15:04:46;9.77;;;6.70;;
38117;SDS011;23928;47.562;7.508;2023-01-19T15:07:19;10.13;;;6.50;;
38117;SDS011;23928;47.562;7.508;2023-01-19T15:09:47;12.93;;;7.53;;
38117;SDS011;23928;47.562;7.508;2023-01-19T15:12:14;12.90;;;7.33;;
38117;SDS011;23928;47.562;7.508;2023-01-19T15:14:41;12.53;;;7.43;;
38117;SDS011;23928;47.562;7.508;2023-01-19T15:17:16;12.77;;;7.53;;
38117;SDS011;23928;47.562;7.508;2023-01-19T15:19:53;11.30;;;7.53;;
38117;SDS011;23928;47.562;7.508;2023-01-19T15:22:19;11.27;;;7.00;;
38117;SDS011;23928;47.562;7.508;2023-01-19T15:24:49;12.77;;;7.43;;
38117;SDS011;23928;47.562;7.508;2023-01-19T15:27:14;13.37;;;7.63;;
38117;SDS011;23928;47.562;7.508;2023-01-19T15:29:40;12.00;;;7.20;;
38117;SDS011;23928;47.562;7.508;2023-01-19T15:32:12;13.87;;;7.60;;
38117;SDS011;23928;47.562;7.508;2023-01-19T15:34:38;11.03;;;6.73;;
38117;SDS011;23928;47.562;7.508;2023-01-19T15:37:04;10.93;;;7.47;;
38117;SDS011;23928;47.562;7.508;2023-01-19T15:39:30;10.33;;;7.20;;
38117;SDS011;23928;47.562;7.508;2023-01-19T15:41:56;12.43;;;7.00;;
38117;SDS011;23928;47.562;7.508;2023-01-19T15:44:21;13.03;;;7.50;;
38117;SDS011;23928;47.562;7.508;2023-01-19T15:46:47;10.87;;;7.13;;
38117;SDS011;23928;47.562;7.508;2023-01-19T15:49:13;14.33;;;7.20;;
38117;SDS011;23928;47.562;7.508;2023-01-19T15:51:39;9.90;;;6.97;;
38117;SDS011;23928;47.562;7.508;2023-01-19T15:54:04;10.57;;;7.73;;
38117;SDS011;23928;47.562;7.508;2023-01-19T15:56:32;10.43;;;7.57;;
38117;SDS011;23928;47.562;7.508;2023-01-19T15:58:58;11.47;;;7.77;;
38117;SDS011;23928;47.562;7.508;2023-01-19T16:01:26;12.80;;;8.33;;
38117;SDS011;23928;47.562;7.508;2023-01-19T16:03:56;13.77;;;8.53;;
38117;SDS011;23928;47.562;7.508;2023-01-19T16:06:24;12.43;;;8.70;;
38117;SDS011;23928;47.562;7.508;2023-01-19T16:08:49;14.73;;;9.47;;
38117;SDS011;23928;47.562;7.508;2023-01-19T16:11:15;14.10;;;9.57;;
38117;SDS011;23928;47.562;7.508;2023-01-19T16:13:45;14.60;;;9.00;;
38117;SDS011;23928;47.562;7.508;2023-01-19T16:16:13;13.73;;;8.50;;
38117;SDS011;23928;47.562;7.508;2023-01-19T16:18:40;12.80;;;8.37;;
38117;SDS011;23928;47.562;7.508;2023-01-19T16:21:05;14.60;;;8.83;;
38117;SDS011;23928;47.562;7.508;2023-01-19T16:23:31;12.23;;;8.13;;
38117;SDS011;23928;47.562;7.508;2023-01-19T16:25:58;14.30;;;8.77;;